| Date | Time | Temp. (oF) | Dew Point (oF) | Rel. Hum. (%) | Press. (in.) | Wind Dir. | Wind Speed (mph) | Hourly Rainfall (in.) |
|
|---|---|---|---|---|---|---|---|---|---|
| 1 | 09/03 | 00:00 | 70 | 60 | 71 | 29.98 | W | 1 | 0.00 |
| 2 | 09/02 | 23:00 | 74 | 59 | 61 | 29.97 | W | 0 | 0.00 |
| 3 | 09/02 | 22:00 | 76 | 59 | 56 | 29.95 | W | 2 | 0.00 |
| 4 | 09/02 | 21:00 | 79 | 61 | 56 | 29.93 | WNW | 1 | 0.00 |
| 5 | 09/02 | 20:00 | 83 | 62 | 51 | 29.90 | NNW | 3 | 0.00 |
| 6 | 09/02 | 19:00 | 85 | 66 | 55 | 29.88 | W | 4 | 0.00 |
| 7 | 09/02 | 18:00 | 87 | 67 | 53 | 29.88 | SSW | 4 | 0.00 |
| 8 | 09/02 | 17:00 | 88 | 66 | 49 | 29.88 | SW | 6 | 0.00 |
| 9 | 09/02 | 16:00 | 87 | 66 | 51 | 29.90 | S | 5 | 0.00 |
| 10 | 09/02 | 15:00 | 87 | 65 | 50 | 29.92 | W | 5 | 0.00 |
| 11 | 09/02 | 14:00 | 86 | 65 | 50 | 29.95 | SW | 4 | 0.00 |
| 12 | 09/02 | 13:00 | 85 | 65 | 53 | 29.98 | NW | 6 | 0.00 |
| 13 | 09/02 | 12:00 | 83 | 65 | 55 | 30.00 | WSW | 11 | 0.00 |
| 14 | 09/02 | 11:00 | 81 | 65 | 59 | 30.00 | W | 3 | 0.00 |
| 15 | 09/02 | 10:00 | 77 | 65 | 69 | 30.02 | W | 4 | 0.00 |
| 16 | 09/02 | 09:00 | 70 | 66 | 88 | 30.01 | WNW | 2 | 0.00 |
| 17 | 09/02 | 08:00 | 63 | 63 | 100 | 30.00 | W | 0 | 0.00 |
| 18 | 09/02 | 07:00 | 61 | 60 | 100 | 29.99 | WNW | 0 | 0.00 |
| 19 | 09/02 | 06:00 | 61 | 60 | 100 | 29.98 | WNW | 0 | 0.00 |
| 20 | 09/02 | 05:00 | 62 | 61 | 99 | 29.98 | WNW | 0 | 0.00 |
| 21 | 09/02 | 04:00 | 63 | 62 | 98 | 29.98 | WNW | 0 | 0.00 |
| 22 | 09/02 | 03:00 | 64 | 62 | 96 | 29.97 | W | 0 | 0.00 |
| 23 | 09/02 | 02:00 | 65 | 63 | 95 | 29.96 | W | 0 | 0.00 |
| 24 | 09/02 | 01:00 | 67 | 65 | 96 | 29.97 | WNW | 0 | 0.00 |